sensor_id;sensor_type;location;lat;lon;timestamp;P1;durP1;ratioP1;P2;durP2;ratioP2
26702;SDS011;14316;51.074;3.704;2023-07-24T00:02:06;7.18;;;5.68;;
26702;SDS011;14316;51.074;3.704;2023-07-24T00:04:32;7.63;;;5.65;;
26702;SDS011;14316;51.074;3.704;2023-07-24T00:06:58;8.07;;;5.97;;
26702;SDS011;14316;51.074;3.704;2023-07-24T00:09:28;6.10;;;5.00;;
26702;SDS011;14316;51.074;3.704;2023-07-24T00:11:54;5.45;;;4.85;;
26702;SDS011;14316;51.074;3.704;2023-07-24T00:14:20;6.60;;;4.97;;
26702;SDS011;14316;51.074;3.704;2023-07-24T00:16:46;6.45;;;4.50;;
26702;SDS011;14316;51.074;3.704;2023-07-24T00:19:12;6.45;;;4.35;;
26702;SDS011;14316;51.074;3.704;2023-07-24T00:21:38;5.78;;;4.90;;
26702;SDS011;14316;51.074;3.704;2023-07-24T00:24:04;6.68;;;5.07;;
26702;SDS011;14316;51.074;3.704;2023-07-24T00:26:30;7.00;;;5.35;;
26702;SDS011;14316;51.074;3.704;2023-07-24T00:28:56;8.00;;;5.05;;
26702;SDS011;14316;51.074;3.704;2023-07-24T00:31:22;7.43;;;4.63;;
26702;SDS011;14316;51.074;3.704;2023-07-24T00:33:48;6.47;;;5.35;;
26702;SDS011;14316;51.074;3.704;2023-07-24T00:36:14;6.60;;;4.88;;
26702;SDS011;14316;51.074;3.704;2023-07-24T00:38:40;6.43;;;4.53;;
26702;SDS011;14316;51.074;3.704;2023-07-24T00:41:06;5.50;;;4.90;;
26702;SDS011;14316;51.074;3.704;2023-07-24T00:43:32;4.47;;;3.63;;
26702;SDS011;14316;51.074;3.704;2023-07-24T00:45:58;9.88;;;4.68;;
26702;SDS011;14316;51.074;3.704;2023-07-24T00:48:24;6.65;;;4.60;;
26702;SDS011;14316;51.074;3.704;2023-07-24T00:50:50;5.32;;;4.70;;
26702;SDS011;14316;51.074;3.704;2023-07-24T00:53:16;4.70;;;4.05;;
26702;SDS011;14316;51.074;3.704;2023-07-24T00:55:43;7.15;;;4.47;;
26702;SDS011;14316;51.074;3.704;2023-07-24T00:58:11;4.32;;;3.78;;
26702;SDS011;14316;51.074;3.704;2023-07-24T01:00:37;6.85;;;4.38;;
26702;SDS011;14316;51.074;3.704;2023-07-24T01:03:04;5.22;;;4.72;;
26702;SDS011;14316;51.074;3.704;2023-07-24T01:05:30;4.72;;;3.88;;
26702;SDS011;14316;51.074;3.704;2023-07-24T01:07:56;4.40;;;3.97;;
26702;SDS011;14316;51.074;3.704;2023-07-24T01:10:23;5.25;;;4.28;;
26702;SDS011;14316;51.074;3.704;2023-07-24T01:12:59;7.25;;;4.55;;
26702;SDS011;14316;51.074;3.704;2023-07-24T01:17:59;6.10;;;4.43;;
26702;SDS011;14316;51.074;3.704;2023-07-24T01:20:33;6.20;;;4.63;;
26702;SDS011;14316;51.074;3.704;2023-07-24T01:23:27;5.05;;;3.97;;
26702;SDS011;14316;51.074;3.704;2023-07-24T01:26:03;5.75;;;4.13;;
26702;SDS011;14316;51.074;3.704;2023-07-24T01:28:30;6.35;;;4.60;;
26702;SDS011;14316;51.074;3.704;2023-07-24T01:30:56;5.70;;;4.38;;
26702;SDS011;14316;51.074;3.704;2023-07-24T01:33:22;5.55;;;4.47;;
26702;SDS011;14316;51.074;3.704;2023-07-24T01:35:50;6.57;;;4.50;;
26702;SDS011;14316;51.074;3.704;2023-07-24T01:38:23;6.38;;;4.35;;
26702;SDS011;14316;51.074;3.704;2023-07-24T01:40:51;5.40;;;4.78;;
26702;SDS011;14316;51.074;3.704;2023-07-24T01:43:18;6.50;;;5.00;;
26702;SDS011;14316;51.074;3.704;2023-07-24T01:45:44;6.07;;;4.85;;
26702;SDS011;14316;51.074;3.704;2023-07-24T01:48:11;6.80;;;5.07;;
26702;SDS011;14316;51.074;3.704;2023-07-24T01:50:37;7.10;;;5.30;;
26702;SDS011;14316;51.074;3.704;2023-07-24T01:53:03;6.85;;;5.10;;
26702;SDS011;14316;51.074;3.704;2023-07-24T01:55:28;8.07;;;5.68;;
26702;SDS011;14316;51.074;3.704;2023-07-24T01:57:54;8.52;;;4.93;;
26702;SDS011;14316;51.074;3.704;2023-07-24T02:00:21;7.43;;;5.32;;
26702;SDS011;14316;51.074;3.704;2023-07-24T02:02:47;6.72;;;5.25;;
26702;SDS011;14316;51.074;3.704;2023-07-24T02:05:12;7.20;;;5.28;;
26702;SDS011;14316;51.074;3.704;2023-07-24T02:07:38;6.57;;;5.40;;
26702;SDS011;14316;51.074;3.704;2023-07-24T02:10:04;9.55;;;5.45;;
26702;SDS011;14316;51.074;3.704;2023-07-24T02:12:31;7.10;;;5.70;;
26702;SDS011;14316;51.074;3.704;2023-07-24T02:14:57;7.20;;;5.82;;
26702;SDS011;14316;51.074;3.704;2023-07-24T02:17:24;8.32;;;6.10;;
26702;SDS011;14316;51.074;3.704;2023-07-24T02:19:50;7.72;;;5.18;;
26702;SDS011;14316;51.074;3.704;2023-07-24T02:22:16;10.77;;;6.25;;
26702;SDS011;14316;51.074;3.704;2023-07-24T02:24:42;10.20;;;6.47;;
26702;SDS011;14316;51.074;3.704;2023-07-24T02:27:11;9.95;;;6.78;;
26702;SDS011;14316;51.074;3.704;2023-07-24T02:29:39;11.98;;;6.40;;
26702;SDS011;14316;51.074;3.704;2023-07-24T02:32:05;7.90;;;6.32;;
26702;SDS011;14316;51.074;3.704;2023-07-24T02:34:31;10.65;;;6.40;;
26702;SDS011;14316;51.074;3.704;2023-07-24T02:36:58;8.25;;;6.50;;
26702;SDS011;14316;51.074;3.704;2023-07-24T02:39:24;6.15;;;5.15;;
26702;SDS011;14316;51.074;3.704;2023-07-24T02:41:49;9.43;;;6.07;;
26702;SDS011;14316;51.074;3.704;2023-07-24T02:44:15;9.63;;;5.78;;
26702;SDS011;14316;51.074;3.704;2023-07-24T02:46:41;10.57;;;5.53;;
26702;SDS011;14316;51.074;3.704;2023-07-24T02:49:08;9.52;;;5.88;;
26702;SDS011;14316;51.074;3.704;2023-07-24T02:51:34;6.72;;;5.88;;
26702;SDS011;14316;51.074;3.704;2023-07-24T02:54:00;8.80;;;6.40;;
26702;SDS011;14316;51.074;3.704;2023-07-24T02:56:25;6.95;;;5.25;;
26702;SDS011;14316;51.074;3.704;2023-07-24T02:58:51;9.55;;;5.72;;
26702;SDS011;14316;51.074;3.704;2023-07-24T03:01:18;6.88;;;5.85;;
26702;SDS011;14316;51.074;3.704;2023-07-24T03:03:44;8.23;;;5.53;;
26702;SDS011;14316;51.074;3.704;2023-07-24T03:06:09;8.38;;;5.72;;
26702;SDS011;14316;51.074;3.704;2023-07-24T03:08:35;7.22;;;4.95;;
26702;SDS011;14316;51.074;3.704;2023-07-24T03:11:04;6.47;;;5.32;;
26702;SDS011;14316;51.074;3.704;2023-07-24T03:13:31;6.22;;;5.30;;
26702;SDS011;14316;51.074;3.704;2023-07-24T03:15:57;6.95;;;5.63;;
26702;SDS011;14316;51.074;3.704;2023-07-24T03:18:24;8.35;;;5.70;;
26702;SDS011;14316;51.074;3.704;2023-07-24T03:20:50;7.05;;;5.65;;
26702;SDS011;14316;51.074;3.704;2023-07-24T03:23:16;7.10;;;5.82;;
26702;SDS011;14316;51.074;3.704;2023-07-24T03:25:43;8.65;;;5.93;;
26702;SDS011;14316;51.074;3.704;2023-07-24T03:28:09;8.98;;;5.75;;
26702;SDS011;14316;51.074;3.704;2023-07-24T03:30:35;7.72;;;5.78;;
26702;SDS011;14316;51.074;3.704;2023-07-24T03:33:01;7.22;;;6.00;;
26702;SDS011;14316;51.074;3.704;2023-07-24T03:35:27;7.93;;;5.95;;
26702;SDS011;14316;51.074;3.704;2023-07-24T03:37:53;8.23;;;6.10;;
26702;SDS011;14316;51.074;3.704;2023-07-24T03:40:19;10.63;;;6.35;;
26702;SDS011;14316;51.074;3.704;2023-07-24T03:42:45;8.38;;;5.90;;
26702;SDS011;14316;51.074;3.704;2023-07-24T03:45:11;6.78;;;6.07;;
26702;SDS011;14316;51.074;3.704;2023-07-24T03:47:37;7.47;;;6.15;;
26702;SDS011;14316;51.074;3.704;2023-07-24T03:50:03;6.60;;;5.82;;
26702;SDS011;14316;51.074;3.704;2023-07-24T03:52:30;9.65;;;6.18;;
26702;SDS011;14316;51.074;3.704;2023-07-24T03:54:55;9.95;;;6.53;;
26702;SDS011;14316;51.074;3.704;2023-07-24T03:57:21;8.57;;;6.43;;
26702;SDS011;14316;51.074;3.704;2023-07-24T03:59:47;12.52;;;6.80;;
26702;SDS011;14316;51.074;3.704;2023-07-24T04:02:14;8.00;;;5.90;;
26702;SDS011;14316;51.074;3.704;2023-07-24T04:04:40;11.88;;;6.47;;
26702;SDS011;14316;51.074;3.704;2023-07-24T04:07:06;9.93;;;6.55;;
26702;SDS011;14316;51.074;3.704;2023-07-24T04:09:31;10.18;;;6.82;;
26702;SDS011;14316;51.074;3.704;2023-07-24T04:11:57;8.23;;;6.65;;
26702;SDS011;14316;51.074;3.704;2023-07-24T04:14:24;9.00;;;6.88;;
26702;SDS011;14316;51.074;3.704;2023-07-24T04:16:50;9.90;;;7.00;;
26702;SDS011;14316;51.074;3.704;2023-07-24T04:19:16;10.40;;;6.88;;
26702;SDS011;14316;51.074;3.704;2023-07-24T04:21:41;11.45;;;7.32;;
26702;SDS011;14316;51.074;3.704;2023-07-24T04:24:07;10.35;;;7.30;;
26702;SDS011;14316;51.074;3.704;2023-07-24T04:26:34;10.48;;;7.07;;
26702;SDS011;14316;51.074;3.704;2023-07-24T04:29:00;9.25;;;6.72;;
26702;SDS011;14316;51.074;3.704;2023-07-24T04:31:26;12.23;;;7.35;;
26702;SDS011;14316;51.074;3.704;2023-07-24T04:33:52;7.93;;;5.85;;
26702;SDS011;14316;51.074;3.704;2023-07-24T04:36:17;10.88;;;7.13;;
26702;SDS011;14316;51.074;3.704;2023-07-24T04:38:44;8.30;;;6.72;;
26702;SDS011;14316;51.074;3.704;2023-07-24T04:41:12;10.20;;;6.95;;
26702;SDS011;14316;51.074;3.704;2023-07-24T04:43:38;10.98;;;7.43;;
26702;SDS011;14316;51.074;3.704;2023-07-24T04:46:04;10.68;;;7.95;;
26702;SDS011;14316;51.074;3.704;2023-07-24T04:48:30;8.65;;;6.93;;
26702;SDS011;14316;51.074;3.704;2023-07-24T04:50:56;12.10;;;7.00;;
26702;SDS011;14316;51.074;3.704;2023-07-24T04:53:22;11.55;;;7.50;;
26702;SDS011;14316;51.074;3.704;2023-07-24T04:55:48;11.68;;;7.38;;
26702;SDS011;14316;51.074;3.704;2023-07-24T04:58:14;11.93;;;7.72;;
26702;SDS011;14316;51.074;3.704;2023-07-24T05:00:40;11.30;;;7.57;;
26702;SDS011;14316;51.074;3.704;2023-07-24T05:03:07;12.00;;;8.10;;
26702;SDS011;14316;51.074;3.704;2023-07-24T05:05:36;10.38;;;7.78;;
26702;SDS011;14316;51.074;3.704;2023-07-24T05:08:02;11.57;;;7.28;;
26702;SDS011;14316;51.074;3.704;2023-07-24T05:10:28;12.48;;;7.65;;
26702;SDS011;14316;51.074;3.704;2023-07-24T05:12:54;12.85;;;7.88;;
26702;SDS011;14316;51.074;3.704;2023-07-24T05:15:22;12.68;;;7.55;;
26702;SDS011;14316;51.074;3.704;2023-07-24T05:17:48;11.05;;;7.85;;
26702;SDS011;14316;51.074;3.704;2023-07-24T05:20:14;10.57;;;7.07;;
26702;SDS011;14316;51.074;3.704;2023-07-24T05:22:40;11.30;;;7.57;;
26702;SDS011;14316;51.074;3.704;2023-07-24T05:25:06;10.63;;;7.28;;
26702;SDS011;14316;51.074;3.704;2023-07-24T05:27:32;12.38;;;7.90;;
26702;SDS011;14316;51.074;3.704;2023-07-24T05:29:58;12.85;;;8.32;;
26702;SDS011;14316;51.074;3.704;2023-07-24T05:32:24;12.57;;;8.20;;
26702;SDS011;14316;51.074;3.704;2023-07-24T05:34:50;11.32;;;8.35;;
26702;SDS011;14316;51.074;3.704;2023-07-24T05:37:16;10.52;;;8.02;;
26702;SDS011;14316;51.074;3.704;2023-07-24T05:39:42;10.95;;;7.63;;
26702;SDS011;14316;51.074;3.704;2023-07-24T05:42:08;13.15;;;8.38;;
26702;SDS011;14316;51.074;3.704;2023-07-24T05:44:35;11.38;;;8.30;;
26702;SDS011;14316;51.074;3.704;2023-07-24T05:47:02;15.43;;;8.93;;
26702;SDS011;14316;51.074;3.704;2023-07-24T05:49:28;11.77;;;8.43;;
26702;SDS011;14316;51.074;3.704;2023-07-24T05:51:55;13.88;;;9.05;;
26702;SDS011;14316;51.074;3.704;2023-07-24T05:54:22;14.90;;;8.82;;
26702;SDS011;14316;51.074;3.704;2023-07-24T05:56:48;11.45;;;8.23;;
26702;SDS011;14316;51.074;3.704;2023-07-24T05:59:14;16.08;;;8.40;;
26702;SDS011;14316;51.074;3.704;2023-07-24T06:01:40;12.13;;;7.75;;
26702;SDS011;14316;51.074;3.704;2023-07-24T06:04:06;12.40;;;8.20;;
26702;SDS011;14316;51.074;3.704;2023-07-24T06:06:32;14.57;;;9.25;;
26702;SDS011;14316;51.074;3.704;2023-07-24T06:08:58;11.18;;;8.68;;
26702;SDS011;14316;51.074;3.704;2023-07-24T06:11:24;12.63;;;8.68;;
26702;SDS011;14316;51.074;3.704;2023-07-24T06:13:52;13.48;;;9.48;;
26702;SDS011;14316;51.074;3.704;2023-07-24T06:16:18;12.75;;;9.63;;
26702;SDS011;14316;51.074;3.704;2023-07-24T06:18:44;12.60;;;8.27;;
26702;SDS011;14316;51.074;3.704;2023-07-24T06:21:10;14.25;;;9.73;;
26702;SDS011;14316;51.074;3.704;2023-07-24T06:23:36;12.88;;;8.90;;
26702;SDS011;14316;51.074;3.704;2023-07-24T06:26:02;12.30;;;8.90;;
26702;SDS011;14316;51.074;3.704;2023-07-24T06:28:28;10.23;;;8.40;;
26702;SDS011;14316;51.074;3.704;2023-07-24T06:30:54;12.30;;;9.88;;
26702;SDS011;14316;51.074;3.704;2023-07-24T06:33:20;12.77;;;9.45;;
26702;SDS011;14316;51.074;3.704;2023-07-24T06:35:49;11.32;;;9.15;;
26702;SDS011;14316;51.074;3.704;2023-07-24T06:38:16;11.00;;;9.27;;
26702;SDS011;14316;51.074;3.704;2023-07-24T06:40:42;12.82;;;9.90;;
26702;SDS011;14316;51.074;3.704;2023-07-24T06:43:08;10.88;;;9.02;;
26702;SDS011;14316;51.074;3.704;2023-07-24T06:45:34;11.30;;;9.32;;
26702;SDS011;14316;51.074;3.704;2023-07-24T06:48:00;15.25;;;9.85;;
26702;SDS011;14316;51.074;3.704;2023-07-24T06:50:26;11.02;;;9.45;;
26702;SDS011;14316;51.074;3.704;2023-07-24T06:52:52;14.45;;;10.10;;
26702;SDS011;14316;51.074;3.704;2023-07-24T06:55:19;12.63;;;9.35;;
26702;SDS011;14316;51.074;3.704;2023-07-24T06:57:45;14.88;;;10.73;;
26702;SDS011;14316;51.074;3.704;2023-07-24T07:00:11;13.68;;;10.70;;
26702;SDS011;14316;51.074;3.704;2023-07-24T07:02:37;15.77;;;9.23;;
26702;SDS011;14316;51.074;3.704;2023-07-24T07:05:04;13.73;;;10.77;;
26702;SDS011;14316;51.074;3.704;2023-07-24T07:07:31;15.52;;;11.07;;
26702;SDS011;14316;51.074;3.704;2023-07-24T07:09:57;15.40;;;10.80;;
26702;SDS011;14316;51.074;3.704;2023-07-24T07:12:23;14.48;;;11.05;;
26702;SDS011;14316;51.074;3.704;2023-07-24T07:14:48;12.07;;;10.05;;
26702;SDS011;14316;51.074;3.704;2023-07-24T07:17:15;14.40;;;10.38;;
26702;SDS011;14316;51.074;3.704;2023-07-24T07:19:41;12.57;;;9.40;;
26702;SDS011;14316;51.074;3.704;2023-07-24T07:22:07;12.30;;;9.48;;
26702;SDS011;14316;51.074;3.704;2023-07-24T07:24:33;11.45;;;8.55;;
26702;SDS011;14316;51.074;3.704;2023-07-24T07:26:58;11.27;;;8.73;;
26702;SDS011;14316;51.074;3.704;2023-07-24T07:29:25;10.27;;;9.27;;
26702;SDS011;14316;51.074;3.704;2023-07-24T07:31:51;12.18;;;9.30;;
26702;SDS011;14316;51.074;3.704;2023-07-24T07:34:17;9.93;;;8.43;;
26702;SDS011;14316;51.074;3.704;2023-07-24T07:36:42;9.82;;;8.30;;
26702;SDS011;14316;51.074;3.704;2023-07-24T07:39:08;10.30;;;9.25;;
26702;SDS011;14316;51.074;3.704;2023-07-24T07:41:35;12.52;;;9.82;;
26702;SDS011;14316;51.074;3.704;2023-07-24T07:44:01;10.27;;;8.93;;
26702;SDS011;14316;51.074;3.704;2023-07-24T07:46:27;10.85;;;8.88;;
26702;SDS011;14316;51.074;3.704;2023-07-24T07:48:53;10.57;;;9.35;;
26702;SDS011;14316;51.074;3.704;2023-07-24T07:51:19;11.07;;;8.02;;
26702;SDS011;14316;51.074;3.704;2023-07-24T07:53:45;12.25;;;9.07;;
26702;SDS011;14316;51.074;3.704;2023-07-24T07:56:11;9.65;;;8.18;;
26702;SDS011;14316;51.074;3.704;2023-07-24T07:58:37;8.88;;;7.30;;
26702;SDS011;14316;51.074;3.704;2023-07-24T08:01:06;8.57;;;6.80;;
26702;SDS011;14316;51.074;3.704;2023-07-24T08:03:32;7.57;;;6.63;;
26702;SDS011;14316;51.074;3.704;2023-07-24T08:06:00;7.20;;;6.50;;
26702;SDS011;14316;51.074;3.704;2023-07-24T08:08:26;7.20;;;6.50;;
26702;SDS011;14316;51.074;3.704;2023-07-24T08:10:51;8.18;;;6.10;;
26702;SDS011;14316;51.074;3.704;2023-07-24T08:13:17;7.22;;;6.40;;
26702;SDS011;14316;51.074;3.704;2023-07-24T08:15:43;7.50;;;6.25;;
26702;SDS011;14316;51.074;3.704;2023-07-24T08:18:10;6.43;;;5.80;;
26702;SDS011;14316;51.074;3.704;2023-07-24T08:20:36;6.50;;;5.90;;
26702;SDS011;14316;51.074;3.704;2023-07-24T08:23:02;7.03;;;6.18;;
26702;SDS011;14316;51.074;3.704;2023-07-24T08:25:28;7.45;;;6.18;;
26702;SDS011;14316;51.074;3.704;2023-07-24T08:27:54;6.70;;;6.03;;
26702;SDS011;14316;51.074;3.704;2023-07-24T08:30:20;6.88;;;5.80;;
26702;SDS011;14316;51.074;3.704;2023-07-24T08:32:46;9.90;;;6.90;;
26702;SDS011;14316;51.074;3.704;2023-07-24T08:35:15;6.97;;;6.28;;
26702;SDS011;14316;51.074;3.704;2023-07-24T08:37:44;8.05;;;6.43;;
26702;SDS011;14316;51.074;3.704;2023-07-24T08:40:10;7.25;;;6.53;;
26702;SDS011;14316;51.074;3.704;2023-07-24T08:42:40;6.90;;;5.88;;
26702;SDS011;14316;51.074;3.704;2023-07-24T08:45:11;6.63;;;5.95;;
26702;SDS011;14316;51.074;3.704;2023-07-24T08:50:09;6.95;;;6.25;;
26702;SDS011;14316;51.074;3.704;2023-07-24T08:52:40;7.07;;;6.38;;
26702;SDS011;14316;51.074;3.704;2023-07-24T08:55:12;5.50;;;4.97;;
26702;SDS011;14316;51.074;3.704;2023-07-24T08:57:38;8.70;;;6.60;;
26702;SDS011;14316;51.074;3.704;2023-07-24T09:00:04;7.68;;;6.72;;
26702;SDS011;14316;51.074;3.704;2023-07-24T09:02:31;8.30;;;6.78;;
26702;SDS011;14316;51.074;3.704;2023-07-24T09:04:58;8.40;;;6.68;;
26702;SDS011;14316;51.074;3.704;2023-07-24T09:07:24;7.15;;;6.43;;
26702;SDS011;14316;51.074;3.704;2023-07-24T09:09:50;9.25;;;6.63;;
26702;SDS011;14316;51.074;3.704;2023-07-24T09:12:17;8.18;;;7.38;;
26702;SDS011;14316;51.074;3.704;2023-07-24T09:14:42;7.50;;;6.63;;
26702;SDS011;14316;51.074;3.704;2023-07-24T09:17:10;9.20;;;7.10;;
26702;SDS011;14316;51.074;3.704;2023-07-24T09:19:37;8.52;;;7.60;;
26702;SDS011;14316;51.074;3.704;2023-07-24T09:22:08;8.65;;;7.30;;
26702;SDS011;14316;51.074;3.704;2023-07-24T09:24:48;11.02;;;7.97;;
26702;SDS011;14316;51.074;3.704;2023-07-24T09:27:18;8.10;;;7.30;;
26702;SDS011;14316;51.074;3.704;2023-07-24T09:29:45;9.00;;;8.10;;
26702;SDS011;14316;51.074;3.704;2023-07-24T09:32:24;9.88;;;7.72;;
26702;SDS011;14316;51.074;3.704;2023-07-24T09:34:51;8.13;;;6.90;;
26702;SDS011;14316;51.074;3.704;2023-07-24T09:37:34;8.30;;;7.05;;
26702;SDS011;14316;51.074;3.704;2023-07-24T09:40:03;7.03;;;5.70;;
26702;SDS011;14316;51.074;3.704;2023-07-24T09:42:30;5.82;;;5.22;;
26702;SDS011;14316;51.074;3.704;2023-07-24T09:44:58;5.97;;;4.90;;
26702;SDS011;14316;51.074;3.704;2023-07-24T09:47:24;6.45;;;4.80;;
26702;SDS011;14316;51.074;3.704;2023-07-24T09:49:51;5.32;;;4.55;;
26702;SDS011;14316;51.074;3.704;2023-07-24T09:52:18;6.35;;;5.25;;
26702;SDS011;14316;51.074;3.704;2023-07-24T09:57:30;6.82;;;4.47;;
26702;SDS011;14316;51.074;3.704;2023-07-24T09:59:57;6.80;;;4.90;;
26702;SDS011;14316;51.074;3.704;2023-07-24T10:02:24;6.25;;;4.40;;
26702;SDS011;14316;51.074;3.704;2023-07-24T10:04:51;5.30;;;4.22;;
26702;SDS011;14316;51.074;3.704;2023-07-24T10:07:18;5.50;;;4.13;;
26702;SDS011;14316;51.074;3.704;2023-07-24T10:09:48;6.68;;;4.75;;
26702;SDS011;14316;51.074;3.704;2023-07-24T10:12:19;5.57;;;4.32;;
26702;SDS011;14316;51.074;3.704;2023-07-24T10:14:47;6.90;;;4.75;;
26702;SDS011;14316;51.074;3.704;2023-07-24T10:17:14;7.60;;;5.00;;
26702;SDS011;14316;51.074;3.704;2023-07-24T10:19:49;5.85;;;5.25;;
26702;SDS011;14316;51.074;3.704;2023-07-24T10:22:18;6.32;;;4.50;;
26702;SDS011;14316;51.074;3.704;2023-07-24T10:24:46;7.00;;;5.25;;
26702;SDS011;14316;51.074;3.704;2023-07-24T10:27:12;7.45;;;5.82;;
26702;SDS011;14316;51.074;3.704;2023-07-24T10:29:38;6.93;;;5.60;;
26702;SDS011;14316;51.074;3.704;2023-07-24T10:32:16;6.35;;;5.38;;
26702;SDS011;14316;51.074;3.704;2023-07-24T10:34:43;7.00;;;5.45;;
26702;SDS011;14316;51.074;3.704;2023-07-24T10:37:09;6.07;;;5.20;;
26702;SDS011;14316;51.074;3.704;2023-07-24T10:39:39;5.75;;;5.00;;
26702;SDS011;14316;51.074;3.704;2023-07-24T10:42:06;7.72;;;5.43;;
26702;SDS011;14316;51.074;3.704;2023-07-24T10:44:33;5.88;;;5.18;;
26702;SDS011;14316;51.074;3.704;2023-07-24T10:47:00;6.10;;;5.00;;
26702;SDS011;14316;51.074;3.704;2023-07-24T10:49:26;5.68;;;4.70;;
26702;SDS011;14316;51.074;3.704;2023-07-24T10:51:56;6.40;;;5.00;;
26702;SDS011;14316;51.074;3.704;2023-07-24T10:54:24;5.65;;;4.43;;
26702;SDS011;14316;51.074;3.704;2023-07-24T10:56:57;5.95;;;5.10;;
26702;SDS011;14316;51.074;3.704;2023-07-24T10:59:35;5.78;;;4.57;;
26702;SDS011;14316;51.074;3.704;2023-07-24T11:02:04;6.82;;;4.57;;
26702;SDS011;14316;51.074;3.704;2023-07-24T11:04:32;7.18;;;4.43;;
26702;SDS011;14316;51.074;3.704;2023-07-24T11:06:59;6.05;;;4.75;;
26702;SDS011;14316;51.074;3.704;2023-07-24T11:09:38;6.40;;;5.30;;
26702;SDS011;14316;51.074;3.704;2023-07-24T11:14:51;5.32;;;4.82;;
26702;SDS011;14316;51.074;3.704;2023-07-24T11:17:21;8.57;;;5.00;;
26702;SDS011;14316;51.074;3.704;2023-07-24T11:19:47;5.97;;;4.70;;
26702;SDS011;14316;51.074;3.704;2023-07-24T11:22:13;7.10;;;5.00;;
26702;SDS011;14316;51.074;3.704;2023-07-24T11:24:46;6.25;;;5.65;;
26702;SDS011;14316;51.074;3.704;2023-07-24T11:27:13;9.27;;;5.97;;
26702;SDS011;14316;51.074;3.704;2023-07-24T11:29:41;11.57;;;5.93;;
26702;SDS011;14316;51.074;3.704;2023-07-24T11:32:12;7.82;;;5.07;;
26702;SDS011;14316;51.074;3.704;2023-07-24T11:34:38;6.00;;;5.43;;
26702;SDS011;14316;51.074;3.704;2023-07-24T11:37:05;10.13;;;5.40;;
26702;SDS011;14316;51.074;3.704;2023-07-24T11:39:31;7.80;;;5.78;;
26702;SDS011;14316;51.074;3.704;2023-07-24T11:41:58;6.97;;;5.68;;
26702;SDS011;14316;51.074;3.704;2023-07-24T11:44:29;6.82;;;5.72;;
26702;SDS011;14316;51.074;3.704;2023-07-24T11:47:14;8.20;;;5.55;;
26702;SDS011;14316;51.074;3.704;2023-07-24T11:49:42;6.22;;;5.55;;
26702;SDS011;14316;51.074;3.704;2023-07-24T11:52:13;9.73;;;5.68;;
26702;SDS011;14316;51.074;3.704;2023-07-24T11:54:39;7.20;;;5.47;;
26702;SDS011;14316;51.074;3.704;2023-07-24T11:57:14;7.38;;;5.28;;
26702;SDS011;14316;51.074;3.704;2023-07-24T11:59:42;9.27;;;5.70;;
26702;SDS011;14316;51.074;3.704;2023-07-24T12:02:10;8.60;;;6.05;;
26702;SDS011;14316;51.074;3.704;2023-07-24T12:04:36;7.15;;;5.78;;
26702;SDS011;14316;51.074;3.704;2023-07-24T12:07:08;8.65;;;6.22;;
26702;SDS011;14316;51.074;3.704;2023-07-24T12:09:34;7.40;;;6.25;;
26702;SDS011;14316;51.074;3.704;2023-07-24T12:12:02;7.72;;;6.97;;
26702;SDS011;14316;51.074;3.704;2023-07-24T12:14:29;8.48;;;7.57;;
26702;SDS011;14316;51.074;3.704;2023-07-24T12:17:02;10.13;;;8.43;;
26702;SDS011;14316;51.074;3.704;2023-07-24T12:19:28;11.25;;;8.73;;
26702;SDS011;14316;51.074;3.704;2023-07-24T12:21:54;9.95;;;7.85;;
26702;SDS011;14316;51.074;3.704;2023-07-24T12:24:21;9.18;;;7.60;;
26702;SDS011;14316;51.074;3.704;2023-07-24T12:26:46;9.70;;;7.80;;
26702;SDS011;14316;51.074;3.704;2023-07-24T12:29:12;11.20;;;8.10;;
26702;SDS011;14316;51.074;3.704;2023-07-24T12:31:38;10.07;;;7.35;;
26702;SDS011;14316;51.074;3.704;2023-07-24T12:34:04;9.05;;;7.07;;
26702;SDS011;14316;51.074;3.704;2023-07-24T12:36:31;11.80;;;7.47;;
26702;SDS011;14316;51.074;3.704;2023-07-24T12:38:56;9.00;;;7.50;;
26702;SDS011;14316;51.074;3.704;2023-07-24T12:41:22;9.00;;;6.57;;
26702;SDS011;14316;51.074;3.704;2023-07-24T12:43:48;7.55;;;6.45;;
26702;SDS011;14316;51.074;3.704;2023-07-24T12:46:14;9.18;;;6.38;;
26702;SDS011;14316;51.074;3.704;2023-07-24T12:48:40;7.68;;;6.15;;
26702;SDS011;14316;51.074;3.704;2023-07-24T12:51:06;7.40;;;6.28;;
26702;SDS011;14316;51.074;3.704;2023-07-24T12:53:32;7.88;;;6.55;;
26702;SDS011;14316;51.074;3.704;2023-07-24T12:55:58;7.85;;;5.93;;
26702;SDS011;14316;51.074;3.704;2023-07-24T12:58:24;8.80;;;6.60;;
26702;SDS011;14316;51.074;3.704;2023-07-24T13:00:50;12.90;;;7.55;;
26702;SDS011;14316;51.074;3.704;2023-07-24T13:03:16;6.88;;;6.10;;
26702;SDS011;14316;51.074;3.704;2023-07-24T13:05:42;7.45;;;6.38;;
26702;SDS011;14316;51.074;3.704;2023-07-24T13:08:08;13.85;;;8.50;;
26702;SDS011;14316;51.074;3.704;2023-07-24T13:10:34;12.38;;;7.88;;
26702;SDS011;14316;51.074;3.704;2023-07-24T13:13:01;11.50;;;7.88;;
26702;SDS011;14316;51.074;3.704;2023-07-24T13:15:27;11.07;;;8.55;;
26702;SDS011;14316;51.074;3.704;2023-07-24T13:17:54;14.65;;;9.15;;
26702;SDS011;14316;51.074;3.704;2023-07-24T13:20:20;15.57;;;10.13;;
26702;SDS011;14316;51.074;3.704;2023-07-24T13:22:46;11.80;;;9.45;;
26702;SDS011;14316;51.074;3.704;2023-07-24T13:25:13;12.30;;;9.70;;
26702;SDS011;14316;51.074;3.704;2023-07-24T13:27:39;10.15;;;8.90;;
26702;SDS011;14316;51.074;3.704;2023-07-24T13:30:05;13.70;;;10.10;;
26702;SDS011;14316;51.074;3.704;2023-07-24T13:32:32;12.50;;;10.38;;
26702;SDS011;14316;51.074;3.704;2023-07-24T13:34:57;13.98;;;10.80;;
26702;SDS011;14316;51.074;3.704;2023-07-24T13:37:25;15.95;;;11.05;;
26702;SDS011;14316;51.074;3.704;2023-07-24T13:39:51;13.40;;;11.23;;
26702;SDS011;14316;51.074;3.704;2023-07-24T13:42:17;13.25;;;10.55;;
26702;SDS011;14316;51.074;3.704;2023-07-24T13:44:43;13.60;;;11.15;;
26702;SDS011;14316;51.074;3.704;2023-07-24T13:47:09;15.05;;;11.07;;
26702;SDS011;14316;51.074;3.704;2023-07-24T13:49:35;18.92;;;13.43;;
26702;SDS011;14316;51.074;3.704;2023-07-24T13:52:01;17.92;;;12.05;;
26702;SDS011;14316;51.074;3.704;2023-07-24T13:54:27;12.10;;;9.25;;
26702;SDS011;14316;51.074;3.704;2023-07-24T13:56:53;11.93;;;8.95;;
26702;SDS011;14316;51.074;3.704;2023-07-24T13:59:19;8.50;;;7.30;;
26702;SDS011;14316;51.074;3.704;2023-07-24T14:01:45;7.38;;;6.65;;
26702;SDS011;14316;51.074;3.704;2023-07-24T14:04:11;6.97;;;6.28;;
26702;SDS011;14316;51.074;3.704;2023-07-24T14:06:39;8.48;;;6.43;;
26702;SDS011;14316;51.074;3.704;2023-07-24T14:09:05;10.02;;;6.15;;
26702;SDS011;14316;51.074;3.704;2023-07-24T14:11:31;8.63;;;5.53;;
26702;SDS011;14316;51.074;3.704;2023-07-24T14:13:57;6.05;;;4.72;;
26702;SDS011;14316;51.074;3.704;2023-07-24T14:16:23;7.25;;;4.63;;
26702;SDS011;14316;51.074;3.704;2023-07-24T14:18:49;7.32;;;4.82;;
26702;SDS011;14316;51.074;3.704;2023-07-24T14:21:15;6.47;;;4.75;;
26702;SDS011;14316;51.074;3.704;2023-07-24T14:23:41;7.95;;;5.28;;
26702;SDS011;14316;51.074;3.704;2023-07-24T14:26:07;7.97;;;5.13;;
26702;SDS011;14316;51.074;3.704;2023-07-24T14:28:33;6.63;;;5.15;;
26702;SDS011;14316;51.074;3.704;2023-07-24T14:30:59;5.90;;;4.95;;
26702;SDS011;14316;51.074;3.704;2023-07-24T14:33:24;7.03;;;5.32;;
26702;SDS011;14316;51.074;3.704;2023-07-24T14:35:50;7.85;;;5.50;;
26702;SDS011;14316;51.074;3.704;2023-07-24T14:38:17;5.82;;;5.22;;
26702;SDS011;14316;51.074;3.704;2023-07-24T14:40:43;6.53;;;4.50;;
26702;SDS011;14316;51.074;3.704;2023-07-24T14:43:09;4.80;;;3.92;;
26702;SDS011;14316;51.074;3.704;2023-07-24T14:45:34;4.18;;;3.78;;
26702;SDS011;14316;51.074;3.704;2023-07-24T14:48:00;5.25;;;3.83;;
26702;SDS011;14316;51.074;3.704;2023-07-24T14:50:27;4.80;;;3.88;;
26702;SDS011;14316;51.074;3.704;2023-07-24T14:52:53;4.80;;;4.10;;